📊 Raw Sensor Data

Showing records 48826 to 48850 of 85,108 total

ID Distance (ft) Battery V Battery A Int Temp (°F) Int Humid (%) Ext Temp (°F) Solar V RSSI SNR Time Stamp
36295 15.5 4.03 5 63 36 60 5.10 -82 8 03/29/2025 11:15 AM
36294 15.4 4.03 0 62 36 58 5.10 -82 8 03/29/2025 11:00 AM
36293 15.4 4.03 0 60 37 59 5.10 -85 8 03/29/2025 10:45 AM
36292 15.4 4.03 0 58 37 57 5.10 -85 7 03/29/2025 10:30 AM
36291 15.3 4.02 5 56 36 54 5.10 -85 8 03/29/2025 10:15 AM
36290 15.3 4.02 5 54 36 55 5.10 -84 7 03/29/2025 10:00 AM
36289 -- 4.02 0 52 36 53 5.10 -85 9 03/29/2025 09:45 AM
36288 -- 4.02 0 51 36 54 5.10 -84 9 03/29/2025 09:30 AM
36287 -- 4.02 5 48 37 52 5.10 -85 9 03/29/2025 09:15 AM
36286 -- 4.02 0 46 37 52 5.10 -86 8 03/29/2025 09:00 AM
36285 -- 4.13 5 45 37 49 5.10 -85 8 03/29/2025 08:45 AM
36284 -- 4.04 5 44 37 48 5.10 -85 9 03/29/2025 08:30 AM
36283 -- 4.03 0 42 37 46 5.00 -86 8 03/29/2025 08:16 AM
36282 -- 4.13 33 40 38 46 4.50 -87 8 03/29/2025 08:00 AM
36281 -- 4.04 6 38 39 46 4.50 -88 7 03/29/2025 07:45 AM
36280 -- 4.04 10 37 39 43 4.50 -88 8 03/29/2025 07:30 AM
36279 -- 4.01 0 36 40 40 4.50 -88 9 03/29/2025 07:15 AM
36278 -- 3.99 -10 35 40 37 3.20 -89 8 03/29/2025 07:00 AM
36277 15.1 3.95 -5 36 40 38 0.80 -89 7 03/29/2025 06:45 AM
36276 -- 4.01 -5 37 40 39 0.00 -89 8 03/29/2025 06:30 AM
36275 15.1 4.01 -5 37 40 38 0.00 -89 8 03/29/2025 06:15 AM
36274 -- 3.95 -5 36 41 39 0.00 -88 8 03/29/2025 06:00 AM
36273 -- 3.96 -5 37 40 39 0.00 -89 7 03/29/2025 05:45 AM
36272 -- 3.96 -5 37 41 40 0.00 -88 6 03/29/2025 05:30 AM
36271 -- 4.01 -5 38 41 42 0.00 -90 7 03/29/2025 05:16 AM